aviador You're here:

RJOO Decoded Metar

OSAKA in JAPAN
Report Time2014-08-27 08:00:00
UTC Time2014-08-27 08:50:24
Flight Rules vfr VFR
Wind350° at 11 kt
W.Decomp.*RWY 32: 8.8 kt HW 6.6 kt RCW
W.Rank350° ranks 12
Current wind is above 350° avg. (8.8)
Visibility9999 m
Phenomena:N/A
Clouds:Few 030 Hf
Expected CloudBase > 3,200 ft AGL from Temp-Dew spread
CeilingNone
Temp29°C (ISA +14)
Dew Point21°C (62% RH)
Heat Index31.3°C
QNH1011 hPa
Density Alt2,064 ft
Elevation49 ft
Report Wrong Elevation
Raw Report
RJOO 270800Z 35011KT 9999 FEW030 BKN/// 29/21 Q1011 RMK 1CU030
A2986=

Flight School in Barcelona

Extra information for RJOO:More info

Metar Taf Metar & Taf Last 4 Metars F.Rules Stats Wind Profile Meteogram Temp Stats Airport Information Weather charts Add Link Nearby VenuesMetar ALERT Operation Metar Decoded Social comments